createdAt,value
2022-12-26T00:00:02.011Z,6.17
2022-12-26T00:02:28.707Z,5.56
2022-12-26T00:04:55.652Z,6.14
2022-12-26T00:07:22.344Z,6.10
2022-12-26T00:09:48.892Z,6.10
2022-12-26T00:12:15.457Z,6.10
2022-12-26T00:14:42.059Z,5.79
2022-12-26T00:17:08.683Z,6.01
2022-12-26T00:19:35.318Z,5.15
2022-12-26T00:22:01.879Z,4.88
2022-12-26T00:24:28.471Z,6.23
2022-12-26T00:26:55.192Z,6.16
2022-12-26T00:29:22.914Z,6.25
2022-12-26T00:31:49.909Z,6.18
2022-12-26T00:34:16.633Z,4.81
2022-12-26T00:36:43.347Z,5.86
2022-12-26T00:39:09.992Z,6.29
2022-12-26T00:41:37.266Z,5.89
2022-12-26T00:44:04.111Z,6.15
2022-12-26T00:46:30.712Z,6.08
2022-12-26T00:49:07.223Z,6.30
2022-12-26T00:51:40.920Z,6.36
2022-12-26T00:54:07.546Z,5.30
2022-12-26T00:56:34.147Z,6.34
2022-12-26T00:59:00.837Z,6.08
2022-12-26T01:01:30.879Z,5.91
2022-12-26T01:03:58.279Z,6.25
2022-12-26T01:06:24.924Z,5.35
2022-12-26T01:08:52.635Z,5.40
2022-12-26T01:11:38.425Z,6.10
2022-12-26T01:14:05.708Z,6.36
2022-12-26T01:16:32.560Z,6.09
2022-12-26T01:19:00.957Z,5.41
2022-12-26T01:21:28.111Z,6.31
2022-12-26T01:23:55.372Z,6.30
2022-12-26T01:26:21.930Z,6.15
2022-12-26T01:28:51.011Z,6.24
2022-12-26T01:31:18.359Z,6.22
2022-12-26T01:33:45.352Z,5.26
2022-12-26T01:36:12.348Z,4.44
2022-12-26T01:38:38.901Z,6.19
2022-12-26T01:41:17.699Z,6.24
2022-12-26T01:43:57.713Z,6.21
2022-12-26T01:46:27.460Z,6.27
2022-12-26T01:48:56.328Z,5.30
2022-12-26T01:51:26.127Z,6.16
2022-12-26T01:53:55.907Z,6.39
2022-12-26T01:56:45.198Z,6.36
2022-12-26T01:59:17.769Z,6.31
2022-12-26T02:01:47.519Z,6.29
2022-12-26T02:04:39.436Z,6.30
2022-12-26T02:07:06.477Z,6.28
2022-12-26T02:09:33.765Z,6.09
2022-12-26T02:12:34.490Z,6.27
2022-12-26T02:14:54.140Z,6.20
2022-12-26T02:17:21.108Z,5.14
2022-12-26T02:20:05.431Z,6.13
2022-12-26T02:23:04.511Z,6.18
2022-12-26T02:25:55.757Z,6.24
2022-12-26T02:28:47.240Z,6.29
2022-12-26T02:31:27.538Z,6.28
2022-12-26T02:34:08.765Z,6.23
2022-12-26T02:36:56.466Z,6.24
2022-12-26T02:39:43.361Z,5.54
2022-12-26T02:43:01.716Z,6.19
2022-12-26T02:45:59.399Z,6.14
2022-12-26T02:48:45.188Z,5.98
2022-12-26T02:51:49.358Z,6.03
2022-12-26T02:54:54.122Z,5.93
2022-12-26T02:57:44.029Z,5.43
2022-12-26T03:00:36.085Z,5.93
2022-12-26T03:03:24.218Z,5.85
2022-12-26T03:06:21.176Z,5.75
2022-12-26T03:09:09.118Z,5.72
2022-12-26T03:12:01.323Z,4.67
2022-12-26T03:14:35.930Z,5.69
2022-12-26T03:17:19.590Z,5.73
2022-12-26T03:19:59.838Z,5.75
2022-12-26T03:22:35.731Z,4.82
2022-12-26T03:25:25.545Z,5.82
2022-12-26T03:27:53.746Z,5.84
2022-12-26T03:30:39.412Z,5.86
2022-12-26T03:33:26.800Z,5.84
2022-12-26T03:35:53.597Z,5.73
2022-12-26T03:38:27.213Z,5.49
2022-12-26T03:41:30.240Z,5.78
2022-12-26T03:44:53.358Z,5.45
2022-12-26T03:47:48.087Z,5.24
2022-12-26T03:50:47.662Z,5.64
2022-12-26T03:53:38.492Z,5.12
2022-12-26T03:56:32.858Z,5.66
2022-12-26T03:59:29.221Z,5.32
2022-12-26T04:02:19.904Z,5.73
2022-12-26T04:05:04.992Z,5.55
2022-12-26T04:07:55.888Z,5.72
2022-12-26T04:10:49.642Z,5.69
2022-12-26T04:14:22.440Z,5.64
2022-12-26T04:17:31.031Z,4.48
2022-12-26T04:20:00.418Z,5.92
2022-12-26T04:23:10.389Z,5.94
2022-12-26T04:26:21.444Z,6.02
2022-12-26T04:29:06.812Z,5.73
2022-12-26T04:32:02.158Z,5.95
2022-12-26T04:34:58.736Z,5.98
2022-12-26T04:37:47.327Z,5.89
2022-12-26T04:40:41.488Z,6.05
2022-12-26T04:43:47.484Z,6.09
2022-12-26T04:46:17.285Z,5.82
2022-12-26T04:49:05.426Z,6.00
2022-12-26T04:51:33.250Z,6.09
2022-12-26T04:53:59.999Z,5.40
2022-12-26T04:56:26.566Z,6.01
2022-12-26T04:58:53.135Z,6.06
2022-12-26T05:01:38.462Z,6.14
2022-12-26T05:04:23.853Z,6.06
2022-12-26T05:07:09.330Z,6.26
2022-12-26T05:09:36.007Z,5.38
2022-12-26T05:12:05.031Z,6.10
2022-12-26T05:14:32.349Z,6.06
2022-12-26T05:17:18.039Z,6.13
2022-12-26T05:20:03.717Z,5.14
2022-12-26T05:22:51.510Z,6.05
2022-12-26T05:25:42.678Z,6.24
2022-12-26T05:28:32.660Z,6.26
2022-12-26T05:30:59.998Z,6.06
2022-12-26T05:33:45.152Z,6.34
2022-12-26T05:36:12.761Z,5.85
2022-12-26T05:38:40.178Z,6.37
2022-12-26T05:41:06.938Z,6.38
2022-12-26T05:43:33.505Z,6.38
2022-12-26T05:46:00.085Z,6.39
2022-12-26T05:48:26.697Z,6.39
2022-12-26T05:50:53.244Z,6.30
2022-12-26T05:53:19.823Z,5.14
2022-12-26T05:55:46.377Z,6.35
2022-12-26T05:58:13.218Z,6.39
2022-12-26T06:00:39.796Z,6.43
2022-12-26T06:03:06.471Z,6.47
2022-12-26T06:05:33.092Z,6.44
2022-12-26T06:07:59.743Z,6.48
2022-12-26T06:10:26.985Z,5.51
2022-12-26T06:12:53.544Z,6.57
2022-12-26T06:15:20.148Z,6.51
2022-12-26T06:17:46.773Z,6.66
2022-12-26T06:20:13.364Z,6.74
2022-12-26T06:22:42.823Z,6.85
2022-12-26T06:25:09.737Z,6.10
2022-12-26T06:27:36.403Z,6.96
2022-12-26T06:30:03.682Z,6.99
2022-12-26T06:32:30.637Z,6.20
2022-12-26T06:34:57.209Z,7.02
2022-12-26T06:37:23.761Z,7.05
2022-12-26T06:39:50.343Z,7.10
2022-12-26T06:42:17.238Z,6.34
2022-12-26T06:44:43.795Z,7.08
2022-12-26T06:47:10.386Z,6.92
2022-12-26T06:49:37.285Z,7.12
2022-12-26T06:52:04.000Z,7.12
2022-12-26T06:54:30.554Z,7.11
2022-12-26T06:56:57.111Z,7.07
2022-12-26T06:59:23.752Z,7.04
2022-12-26T07:01:50.518Z,7.03
2022-12-26T07:04:17.390Z,6.67
2022-12-26T07:06:44.171Z,7.00
2022-12-26T07:09:14.428Z,6.97
2022-12-26T07:11:44.345Z,6.94
2022-12-26T07:14:11.281Z,6.95
2022-12-26T07:16:39.615Z,6.86
2022-12-26T07:19:06.984Z,6.88
2022-12-26T07:21:40.194Z,6.86
2022-12-26T07:24:08.973Z,6.85
2022-12-26T07:26:35.662Z,6.84
2022-12-26T07:29:02.219Z,5.74
2022-12-26T07:31:28.909Z,6.90
2022-12-26T07:33:56.687Z,6.76
2022-12-26T07:36:25.109Z,6.09
2022-12-26T07:38:52.086Z,6.89
2022-12-26T07:41:38.403Z,6.92
2022-12-26T07:44:06.065Z,6.81
2022-12-26T07:46:33.346Z,6.59
2022-12-26T07:49:00.044Z,6.95
2022-12-26T07:51:27.315Z,6.97
2022-12-26T07:53:53.940Z,6.97
2022-12-26T07:56:20.598Z,5.84
2022-12-26T07:58:51.323Z,6.98
2022-12-26T08:01:19.090Z,7.02
2022-12-26T08:03:48.698Z,7.02
2022-12-26T08:06:15.775Z,7.08
2022-12-26T08:08:50.213Z,6.76
2022-12-26T08:11:21.341Z,7.14
2022-12-26T08:13:49.400Z,7.08
2022-12-26T08:16:16.281Z,5.52
2022-12-26T08:18:43.870Z,7.24
2022-12-26T08:21:11.578Z,7.24
2022-12-26T08:23:38.810Z,7.28
2022-12-26T08:26:08.156Z,7.30
2022-12-26T08:28:34.994Z,7.38
2022-12-26T08:31:07.103Z,6.58
2022-12-26T08:33:33.787Z,7.34
2022-12-26T08:36:05.426Z,7.47
2022-12-26T08:38:34.021Z,7.51
2022-12-26T08:41:01.617Z,7.51
2022-12-26T08:46:16.888Z,7.07
2022-12-26T08:48:44.193Z,7.55
2022-12-26T08:51:22.420Z,7.60
2022-12-26T08:53:52.331Z,6.73
2022-12-26T08:56:21.253Z,7.76
2022-12-26T08:58:48.017Z,7.99
2022-12-26T09:01:26.599Z,7.95
2022-12-26T09:03:58.335Z,7.91
2022-12-26T09:06:26.168Z,7.98
2022-12-26T09:08:52.912Z,7.98
2022-12-26T09:11:22.705Z,8.06
2022-12-26T09:13:50.290Z,7.79
2022-12-26T09:16:50.568Z,8.11
2022-12-26T09:19:18.594Z,8.14
2022-12-26T09:21:46.485Z,8.02
2022-12-26T09:24:16.019Z,8.17
2022-12-26T09:26:43.759Z,8.21
2022-12-26T09:29:11.802Z,8.31
2022-12-26T09:31:38.449Z,8.33
2022-12-26T09:34:06.440Z,8.39
2022-12-26T09:36:37.814Z,8.39
2022-12-26T09:39:04.804Z,8.38
2022-12-26T09:41:49.992Z,8.43
2022-12-26T09:44:38.446Z,8.11
2022-12-26T09:47:32.099Z,8.50
2022-12-26T09:50:01.758Z,8.53
2022-12-26T09:52:39.859Z,8.57
2022-12-26T09:55:45.021Z,8.54
2022-12-26T09:58:31.344Z,8.64
2022-12-26T10:01:13.326Z,8.69
2022-12-26T10:03:48.914Z,8.48
2022-12-26T10:06:24.042Z,8.81
2022-12-26T10:09:23.246Z,8.85
2022-12-26T10:12:05.095Z,8.88
2022-12-26T10:14:54.921Z,8.90
2022-12-26T10:17:30.548Z,8.97
2022-12-26T10:20:17.308Z,9.05
2022-12-26T10:22:49.942Z,8.13
2022-12-26T10:25:21.754Z,8.60
2022-12-26T10:27:50.835Z,8.37
2022-12-26T10:30:30.440Z,8.01
2022-12-26T10:33:01.161Z,7.89
2022-12-26T10:35:33.918Z,9.15
2022-12-26T10:38:18.719Z,9.13
2022-12-26T10:40:50.367Z,9.16
2022-12-26T10:43:32.178Z,8.20
2022-12-26T10:46:20.425Z,9.17
2022-12-26T10:48:48.275Z,9.16
2022-12-26T10:51:16.288Z,8.34
2022-12-26T10:53:52.051Z,8.77
2022-12-26T10:56:20.067Z,9.21
2022-12-26T10:58:58.534Z,9.42
2022-12-26T11:01:47.278Z,8.33
2022-12-26T11:05:11.241Z,9.53
2022-12-26T11:07:12.033Z,9.56
2022-12-26T11:09:42.601Z,9.52
2022-12-26T11:12:59.079Z,9.45
2022-12-26T11:15:41.334Z,9.49
2022-12-26T11:18:47.545Z,9.49
2022-12-26T11:21:30.660Z,9.48
2022-12-26T11:24:09.345Z,9.50
2022-12-26T11:26:37.044Z,9.57
2022-12-26T11:32:19.526Z,9.56
2022-12-26T11:34:49.438Z,9.32
2022-12-26T11:37:26.753Z,8.77
2022-12-26T11:39:53.836Z,9.51
2022-12-26T11:42:23.362Z,8.59
2022-12-26T11:44:52.719Z,8.64
2022-12-26T11:47:26.343Z,9.66
2022-12-26T11:50:03.485Z,9.70
2022-12-26T11:52:56.477Z,9.65
2022-12-26T11:55:26.428Z,9.63
2022-12-26T11:58:15.211Z,9.63
2022-12-26T12:01:01.626Z,9.53
2022-12-26T12:03:34.431Z,9.64
2022-12-26T12:06:34.708Z,9.71
2022-12-26T12:09:14.184Z,9.78
2022-12-26T12:12:14.029Z,9.08
2022-12-26T12:15:00.094Z,8.55
2022-12-26T12:17:35.721Z,9.16
2022-12-26T12:20:32.053Z,9.80
2022-12-26T12:23:26.630Z,9.87
2022-12-26T12:26:22.439Z,9.85
2022-12-26T12:29:12.186Z,9.84
2022-12-26T12:31:51.543Z,9.53
2022-12-26T12:34:29.978Z,9.86
2022-12-26T12:37:37.863Z,9.88
2022-12-26T12:40:07.028Z,9.95
2022-12-26T12:42:39.641Z,10.02
2022-12-26T12:45:33.549Z,10.02
2022-12-26T12:48:06.066Z,10.10
2022-12-26T12:51:04.648Z,10.14
2022-12-26T12:53:37.202Z,10.17
2022-12-26T12:56:42.015Z,10.19
2022-12-26T12:59:24.352Z,10.20
2022-12-26T13:01:57.476Z,9.81
2022-12-26T13:04:31.017Z,10.05
2022-12-26T13:07:03.125Z,10.07
2022-12-26T13:09:37.729Z,10.14
2022-12-26T13:12:07.626Z,9.87
2022-12-26T13:14:45.148Z,10.13
2022-12-26T13:17:20.300Z,10.06
2022-12-26T13:20:02.553Z,9.98
2022-12-26T13:23:02.628Z,9.78
2022-12-26T13:25:35.627Z,9.94
2022-12-26T13:28:09.946Z,9.91
2022-12-26T13:30:38.057Z,9.97
2022-12-26T13:33:05.708Z,10.00
2022-12-26T13:35:55.078Z,10.05
2022-12-26T13:38:23.421Z,8.69
2022-12-26T13:41:22.722Z,9.53
2022-12-26T13:44:17.971Z,9.99
2022-12-26T13:46:47.474Z,9.96
2022-12-26T13:49:38.942Z,9.97
2022-12-26T13:52:11.533Z,9.94
2022-12-26T13:55:06.840Z,9.99
2022-12-26T13:57:42.756Z,9.14
2022-12-26T14:00:19.121Z,9.87
2022-12-26T14:03:17.977Z,9.95
2022-12-26T14:05:44.899Z,9.93
2022-12-26T14:08:29.547Z,9.91
2022-12-26T14:11:31.483Z,9.88
2022-12-26T14:14:28.601Z,9.97
2022-12-26T14:17:02.536Z,9.81
2022-12-26T14:19:55.200Z,9.90
2022-12-26T14:22:33.911Z,9.86
2022-12-26T14:25:18.813Z,9.83
2022-12-26T14:28:02.427Z,9.73
2022-12-26T14:30:40.013Z,9.67
2022-12-26T14:33:24.551Z,9.70
2022-12-26T14:36:25.251Z,9.75
2022-12-26T14:39:21.233Z,9.77
2022-12-26T14:42:26.472Z,9.76
2022-12-26T14:44:58.430Z,9.73
2022-12-26T14:47:44.871Z,9.76
2022-12-26T14:50:55.263Z,9.77
2022-12-26T14:53:24.884Z,9.69
2022-12-26T14:55:58.885Z,9.71
2022-12-26T14:58:25.509Z,9.64
2022-12-26T15:00:53.782Z,9.67
2022-12-26T15:03:36.677Z,9.66
2022-12-26T15:06:21.390Z,9.65
2022-12-26T15:08:53.885Z,9.59
2022-12-26T15:12:10.828Z,9.60
2022-12-26T15:14:46.454Z,9.57
2022-12-26T15:17:22.181Z,9.57
2022-12-26T15:20:01.029Z,9.52
2022-12-26T15:22:49.606Z,9.36
2022-12-26T15:25:28.570Z,9.45
2022-12-26T15:27:58.068Z,9.47
2022-12-26T15:30:42.281Z,9.45
2022-12-26T15:33:25.031Z,8.68
2022-12-26T15:36:36.551Z,9.43
2022-12-26T15:39:24.079Z,8.84
2022-12-26T15:42:04.208Z,8.55
2022-12-26T15:44:56.790Z,9.41
2022-12-26T15:47:33.992Z,9.05
2022-12-26T15:50:30.609Z,9.42
2022-12-26T15:53:00.347Z,9.43
2022-12-26T15:55:48.776Z,8.10
2022-12-26T15:58:36.076Z,9.31
2022-12-26T16:01:04.068Z,8.05
2022-12-26T16:03:57.445Z,9.35
2022-12-26T16:06:42.903Z,8.40
2022-12-26T16:09:37.221Z,9.36
2022-12-26T16:12:19.046Z,8.86
2022-12-26T16:14:46.505Z,8.64
2022-12-26T16:17:16.449Z,9.37
2022-12-26T16:19:49.450Z,9.34
2022-12-26T16:22:46.847Z,8.94
2022-12-26T16:25:16.709Z,9.31
2022-12-26T16:27:45.426Z,8.62
2022-12-26T16:30:20.085Z,9.34
2022-12-26T16:32:47.518Z,7.92
2022-12-26T16:35:19.461Z,9.30
2022-12-26T16:37:47.120Z,8.43
2022-12-26T16:40:52.561Z,9.28
2022-12-26T16:43:19.063Z,9.25
2022-12-26T16:45:49.073Z,9.26
2022-12-26T16:48:20.189Z,9.25
2022-12-26T16:50:57.375Z,9.24
2022-12-26T16:53:36.099Z,9.24
2022-12-26T16:56:24.049Z,9.19
2022-12-26T16:59:17.031Z,9.13
2022-12-26T17:01:56.930Z,8.24
2022-12-26T17:04:26.097Z,9.04
2022-12-26T17:06:57.460Z,9.01
2022-12-26T17:09:27.269Z,8.32
2022-12-26T17:11:56.054Z,8.95
2022-12-26T17:14:30.578Z,7.09
2022-12-26T17:17:01.856Z,8.95
2022-12-26T17:19:29.921Z,8.94
2022-12-26T17:22:21.043Z,8.89
2022-12-26T17:24:50.152Z,8.86
2022-12-26T17:27:24.914Z,8.84
2022-12-26T17:30:18.699Z,8.83
2022-12-26T17:32:47.104Z,8.82
2022-12-26T17:35:20.405Z,7.92
2022-12-26T17:37:51.590Z,8.10
2022-12-26T17:40:27.507Z,7.43
2022-12-26T17:43:04.387Z,8.79
2022-12-26T17:45:31.091Z,8.34
2022-12-26T17:47:58.280Z,7.96
2022-12-26T17:50:30.787Z,8.84
2022-12-26T17:53:16.068Z,8.85
2022-12-26T17:55:42.615Z,8.84
2022-12-26T17:58:14.051Z,8.87
2022-12-26T18:00:41.234Z,8.88
2022-12-26T18:03:08.075Z,8.75
2022-12-26T18:05:38.675Z,8.49
2022-12-26T18:08:06.238Z,8.88
2022-12-26T18:10:35.606Z,8.90
2022-12-26T18:13:03.003Z,8.94
2022-12-26T18:15:31.462Z,8.02
2022-12-26T18:17:58.035Z,8.84
2022-12-26T18:20:30.225Z,8.94
2022-12-26T18:22:56.910Z,8.96
2022-12-26T18:25:25.645Z,8.96
2022-12-26T18:27:52.424Z,8.98
2022-12-26T18:30:24.700Z,8.97
2022-12-26T18:32:56.466Z,8.23
2022-12-26T18:35:23.054Z,7.84
2022-12-26T18:37:52.375Z,8.98
2022-12-26T18:40:37.945Z,8.98
2022-12-26T18:43:24.055Z,7.63
2022-12-26T18:46:29.419Z,8.99
2022-12-26T18:49:00.866Z,8.99
2022-12-26T18:51:30.276Z,8.40
2022-12-26T18:53:56.957Z,8.98
2022-12-26T18:56:23.579Z,9.02
2022-12-26T18:58:57.479Z,9.01
2022-12-26T19:01:25.510Z,9.03
2022-12-26T19:03:53.858Z,9.06
2022-12-26T19:06:24.044Z,9.02
2022-12-26T19:08:50.693Z,9.05
2022-12-26T19:11:17.375Z,8.02
2022-12-26T19:13:44.494Z,9.07
2022-12-26T19:16:12.210Z,8.96
2022-12-26T19:18:39.427Z,8.57
2022-12-26T19:21:32.509Z,8.29
2022-12-26T19:23:59.388Z,8.77
2022-12-26T19:26:25.973Z,8.06
2022-12-26T19:28:54.328Z,9.05
2022-12-26T19:31:22.379Z,8.92
2022-12-26T19:33:49.688Z,9.08
2022-12-26T19:36:16.347Z,9.06
2022-12-26T19:38:42.920Z,9.03
2022-12-26T19:41:12.507Z,9.01
2022-12-26T19:43:39.867Z,8.18
2022-12-26T19:46:11.820Z,8.23
2022-12-26T19:48:39.305Z,9.01
2022-12-26T19:51:11.451Z,8.51
2022-12-26T19:53:39.258Z,8.96
2022-12-26T19:56:11.929Z,8.99
2022-12-26T19:58:39.068Z,8.99
2022-12-26T20:01:11.103Z,8.86
2022-12-26T20:03:39.481Z,8.23
2022-12-26T20:06:13.325Z,7.88
2022-12-26T20:08:40.408Z,7.80
2022-12-26T20:11:09.863Z,7.63
2022-12-26T20:13:37.066Z,8.34
2022-12-26T20:16:05.679Z,7.23
2022-12-26T20:18:34.779Z,6.79
2022-12-26T20:21:01.708Z,8.03
2022-12-26T20:23:28.478Z,6.71
2022-12-26T20:25:57.567Z,7.83
2022-12-26T20:28:24.115Z,7.36
2022-12-26T20:30:59.116Z,7.91
2022-12-26T20:34:06.675Z,6.70
2022-12-26T20:36:45.663Z,7.91
2022-12-26T20:39:15.136Z,7.89
2022-12-26T20:41:41.762Z,7.87
2022-12-26T20:44:08.555Z,7.82
2022-12-26T20:46:36.033Z,7.68
2022-12-26T20:49:04.732Z,7.78
2022-12-26T20:51:37.524Z,7.16
2022-12-26T20:54:08.455Z,6.24
2022-12-26T20:56:36.316Z,6.25
2022-12-26T20:59:03.287Z,7.29
2022-12-26T21:01:30.491Z,7.62
2022-12-26T21:03:57.977Z,6.37
2022-12-26T21:06:28.295Z,7.59
2022-12-26T21:08:56.350Z,7.34
2022-12-26T21:11:25.924Z,7.50
2022-12-26T21:13:55.748Z,7.49
2022-12-26T21:16:25.781Z,7.46
2022-12-26T21:18:53.119Z,7.23
2022-12-26T21:21:23.881Z,7.45
2022-12-26T21:23:56.122Z,7.43
2022-12-26T21:26:23.243Z,6.21
2022-12-26T21:28:54.826Z,7.38
2022-12-26T21:31:21.421Z,6.03
2022-12-26T21:33:48.080Z,7.31
2022-12-26T21:36:14.696Z,7.17
2022-12-26T21:38:42.373Z,6.79
2022-12-26T21:41:10.586Z,7.17
2022-12-26T21:43:37.555Z,7.10
2022-12-26T21:46:14.644Z,6.19
2022-12-26T21:48:47.410Z,6.87
2022-12-26T21:51:15.470Z,7.02
2022-12-26T21:53:44.710Z,6.45
2022-12-26T21:56:13.384Z,7.01
2022-12-26T21:58:59.756Z,7.04
2022-12-26T22:01:27.510Z,6.84
2022-12-26T22:04:21.711Z,7.10
2022-12-26T22:06:51.242Z,7.16
2022-12-26T22:09:18.682Z,7.20
2022-12-26T22:12:04.416Z,6.06
2022-12-26T22:14:31.690Z,7.21
2022-12-26T22:16:58.777Z,7.21
2022-12-26T22:19:28.338Z,7.29
2022-12-26T22:21:55.088Z,7.32
2022-12-26T22:24:22.223Z,6.94
2022-12-26T22:26:49.594Z,6.75
2022-12-26T22:29:16.474Z,6.51
2022-12-26T22:31:43.142Z,6.89
2022-12-26T22:34:12.304Z,7.36
2022-12-26T22:36:40.357Z,6.50
2022-12-26T22:39:07.331Z,6.44
2022-12-26T22:41:34.248Z,7.27
2022-12-26T22:44:01.105Z,7.21
2022-12-26T22:46:27.793Z,5.89
2022-12-26T22:48:54.433Z,6.07
2022-12-26T22:51:23.643Z,7.01
2022-12-26T22:53:54.016Z,7.01
2022-12-26T22:56:20.834Z,6.11
2022-12-26T22:58:47.374Z,6.24
2022-12-26T23:01:16.859Z,6.93
2022-12-26T23:03:43.676Z,6.94
2022-12-26T23:06:25.952Z,6.96
2022-12-26T23:08:56.548Z,6.13
2022-12-26T23:11:30.269Z,6.84
2022-12-26T23:14:01.639Z,6.55
2022-12-26T23:16:37.768Z,5.48
2022-12-26T23:19:57.917Z,6.66
2022-12-26T23:22:24.688Z,6.77
2022-12-26T23:24:51.219Z,6.77
2022-12-26T23:27:36.485Z,5.83
2022-12-26T23:30:19.540Z,5.59
2022-12-26T23:32:52.271Z,6.76
2022-12-26T23:35:20.357Z,6.79
2022-12-26T23:37:46.954Z,6.80
2022-12-26T23:40:15.471Z,6.81
2022-12-26T23:42:42.054Z,5.83
2022-12-26T23:45:10.084Z,6.84
2022-12-26T23:47:38.229Z,5.90
2022-12-26T23:50:06.922Z,6.90
2022-12-26T23:52:33.779Z,6.14
2022-12-26T23:55:00.393Z,6.87
2022-12-26T23:57:27.160Z,5.71
2022-12-26T23:59:53.704Z,6.24
